sensor_id;sensor_type;location;lat;lon;timestamp;temperature;humidity
66568;DHT22;53422;49.296;6.900;2022-12-07T00:01:27;4.10;99.90
66568;DHT22;53422;49.296;6.900;2022-12-07T00:03:54;4.10;99.90
66568;DHT22;53422;49.296;6.900;2022-12-07T00:06:26;4.10;99.90
66568;DHT22;53422;49.296;6.900;2022-12-07T00:08:51;4.10;99.90
66568;DHT22;53422;49.296;6.900;2022-12-07T00:11:19;4.10;99.90
66568;DHT22;53422;49.296;6.900;2022-12-07T00:13:46;4.10;99.90
66568;DHT22;53422;49.296;6.900;2022-12-07T00:16:14;4.10;99.90
66568;DHT22;53422;49.296;6.900;2022-12-07T00:18:41;4.10;99.90
66568;DHT22;53422;49.296;6.900;2022-12-07T00:21:13;4.10;99.90
66568;DHT22;53422;49.296;6.900;2022-12-07T00:23:40;4.10;99.90
66568;DHT22;53422;49.296;6.900;2022-12-07T00:26:14;4.10;99.90
66568;DHT22;53422;49.296;6.900;2022-12-07T00:28:41;4.10;99.90
66568;DHT22;53422;49.296;6.900;2022-12-07T00:31:11;4.10;99.90
66568;DHT22;53422;49.296;6.900;2022-12-07T00:33:38;4.10;99.90
66568;DHT22;53422;49.296;6.900;2022-12-07T00:36:07;4.10;99.90
66568;DHT22;53422;49.296;6.900;2022-12-07T00:38:35;4.10;99.90
66568;DHT22;53422;49.296;6.900;2022-12-07T00:41:05;4.10;99.90
66568;DHT22;53422;49.296;6.900;2022-12-07T00:43:31;4.10;99.90
66568;DHT22;53422;49.296;6.900;2022-12-07T00:45:57;4.10;99.90
66568;DHT22;53422;49.296;6.900;2022-12-07T00:48:24;4.10;99.90
66568;DHT22;53422;49.296;6.900;2022-12-07T00:50:50;4.10;99.90
66568;DHT22;53422;49.296;6.900;2022-12-07T00:53:15;4.10;99.90
66568;DHT22;53422;49.296;6.900;2022-12-07T00:55:41;4.10;99.90
66568;DHT22;53422;49.296;6.900;2022-12-07T00:58:08;4.10;99.90
66568;DHT22;53422;49.296;6.900;2022-12-07T01:00:35;4.10;99.90
66568;DHT22;53422;49.296;6.900;2022-12-07T01:03:01;4.10;99.90
66568;DHT22;53422;49.296;6.900;2022-12-07T01:05:27;4.10;99.90
66568;DHT22;53422;49.296;6.900;2022-12-07T01:07:53;4.10;99.90
66568;DHT22;53422;49.296;6.900;2022-12-07T01:10:18;4.10;99.90
66568;DHT22;53422;49.296;6.900;2022-12-07T01:12:44;4.10;99.90
66568;DHT22;53422;49.296;6.900;2022-12-07T01:15:10;4.10;99.90
66568;DHT22;53422;49.296;6.900;2022-12-07T01:17:36;4.10;99.90
66568;DHT22;53422;49.296;6.900;2022-12-07T01:20:02;4.10;99.90
66568;DHT22;53422;49.296;6.900;2022-12-07T01:22:28;4.10;99.90
66568;DHT22;53422;49.296;6.900;2022-12-07T01:24:54;4.10;99.90
66568;DHT22;53422;49.296;6.900;2022-12-07T01:27:19;4.00;99.90
66568;DHT22;53422;49.296;6.900;2022-12-07T01:29:45;4.00;99.90
66568;DHT22;53422;49.296;6.900;2022-12-07T01:32:11;4.00;99.90
66568;DHT22;53422;49.296;6.900;2022-12-07T01:34:36;4.00;99.90
66568;DHT22;53422;49.296;6.900;2022-12-07T01:37:02;4.00;99.90
66568;DHT22;53422;49.296;6.900;2022-12-07T01:39:27;4.00;99.90
66568;DHT22;53422;49.296;6.900;2022-12-07T01:41:54;4.00;99.90
66568;DHT22;53422;49.296;6.900;2022-12-07T01:44:28;4.00;99.90
66568;DHT22;53422;49.296;6.900;2022-12-07T01:47:03;4.00;99.90
66568;DHT22;53422;49.296;6.900;2022-12-07T01:49:41;4.00;99.90
66568;DHT22;53422;49.296;6.900;2022-12-07T01:52:21;4.00;99.90
66568;DHT22;53422;49.296;6.900;2022-12-07T01:54:49;4.00;99.90
66568;DHT22;53422;49.296;6.900;2022-12-07T01:57:17;4.00;99.90
66568;DHT22;53422;49.296;6.900;2022-12-07T01:59:44;4.00;99.90
66568;DHT22;53422;49.296;6.900;2022-12-07T02:02:17;4.00;99.90
66568;DHT22;53422;49.296;6.900;2022-12-07T02:04:44;4.00;99.90
66568;DHT22;53422;49.296;6.900;2022-12-07T02:07:10;4.00;99.90
66568;DHT22;53422;49.296;6.900;2022-12-07T02:09:36;4.00;99.90
66568;DHT22;53422;49.296;6.900;2022-12-07T02:12:02;4.00;99.90
66568;DHT22;53422;49.296;6.900;2022-12-07T02:14:27;4.00;99.90
66568;DHT22;53422;49.296;6.900;2022-12-07T02:17:11;4.00;99.90
66568;DHT22;53422;49.296;6.900;2022-12-07T02:25:04;4.00;99.90
66568;DHT22;53422;49.296;6.900;2022-12-07T02:27:52;4.00;99.90
66568;DHT22;53422;49.296;6.900;2022-12-07T02:30:23;4.00;99.90
66568;DHT22;53422;49.296;6.900;2022-12-07T02:38:11;4.00;99.90
66568;DHT22;53422;49.296;6.900;2022-12-07T02:40:47;3.90;99.90
66568;DHT22;53422;49.296;6.900;2022-12-07T02:43:25;4.00;99.90
66568;DHT22;53422;49.296;6.900;2022-12-07T02:45:54;3.90;99.90
66568;DHT22;53422;49.296;6.900;2022-12-07T02:48:21;3.90;99.90
66568;DHT22;53422;49.296;6.900;2022-12-07T02:50:49;4.00;99.90
66568;DHT22;53422;49.296;6.900;2022-12-07T02:53:36;4.00;99.90
66568;DHT22;53422;49.296;6.900;2022-12-07T02:56:20;4.00;99.90
66568;DHT22;53422;49.296;6.900;2022-12-07T03:07:49;4.00;99.90
66568;DHT22;53422;49.296;6.900;2022-12-07T03:09:48;4.00;99.90
66568;DHT22;53422;49.296;6.900;2022-12-07T03:12:20;4.00;99.90
66568;DHT22;53422;49.296;6.900;2022-12-07T03:14:52;4.00;99.90
66568;DHT22;53422;49.296;6.900;2022-12-07T03:17:25;4.00;99.90
66568;DHT22;53422;49.296;6.900;2022-12-07T03:19:54;4.00;99.90
66568;DHT22;53422;49.296;6.900;2022-12-07T03:22:23;4.00;99.90
66568;DHT22;53422;49.296;6.900;2022-12-07T03:24:54;4.00;99.90
66568;DHT22;53422;49.296;6.900;2022-12-07T03:27:24;4.00;99.90
66568;DHT22;53422;49.296;6.900;2022-12-07T03:30:08;4.00;99.90
66568;DHT22;53422;49.296;6.900;2022-12-07T03:33:02;4.00;99.90
66568;DHT22;53422;49.296;6.900;2022-12-07T03:35:43;4.00;99.90
66568;DHT22;53422;49.296;6.900;2022-12-07T03:38:30;4.00;99.90
66568;DHT22;53422;49.296;6.900;2022-12-07T03:41:01;4.00;99.90
66568;DHT22;53422;49.296;6.900;2022-12-07T03:43:29;4.00;99.90
66568;DHT22;53422;49.296;6.900;2022-12-07T03:46:31;4.00;99.90
66568;DHT22;53422;49.296;6.900;2022-12-07T03:49:22;4.00;99.90
66568;DHT22;53422;49.296;6.900;2022-12-07T03:52:19;4.00;99.90
66568;DHT22;53422;49.296;6.900;2022-12-07T03:57:27;4.00;99.90
66568;DHT22;53422;49.296;6.900;2022-12-07T03:59:55;4.00;99.90
66568;DHT22;53422;49.296;6.900;2022-12-07T04:02:22;4.00;99.90
66568;DHT22;53422;49.296;6.900;2022-12-07T04:04:49;4.00;99.90
66568;DHT22;53422;49.296;6.900;2022-12-07T04:07:14;4.00;99.90
66568;DHT22;53422;49.296;6.900;2022-12-07T04:09:40;4.00;99.90
66568;DHT22;53422;49.296;6.900;2022-12-07T04:12:06;4.00;99.90
66568;DHT22;53422;49.296;6.900;2022-12-07T04:14:32;4.00;99.90
66568;DHT22;53422;49.296;6.900;2022-12-07T04:16:58;4.00;99.90
66568;DHT22;53422;49.296;6.900;2022-12-07T04:19:26;4.00;99.90
66568;DHT22;53422;49.296;6.900;2022-12-07T04:21:52;4.00;99.90
66568;DHT22;53422;49.296;6.900;2022-12-07T04:24:18;4.00;99.90
66568;DHT22;53422;49.296;6.900;2022-12-07T04:26:45;4.00;99.90
66568;DHT22;53422;49.296;6.900;2022-12-07T04:29:11;4.00;99.90
66568;DHT22;53422;49.296;6.900;2022-12-07T04:31:37;4.00;99.90
66568;DHT22;53422;49.296;6.900;2022-12-07T04:34:03;3.90;99.90
66568;DHT22;53422;49.296;6.900;2022-12-07T04:36:29;3.90;99.90
66568;DHT22;53422;49.296;6.900;2022-12-07T04:38:56;3.90;99.90
66568;DHT22;53422;49.296;6.900;2022-12-07T04:41:23;3.90;99.90
66568;DHT22;53422;49.296;6.900;2022-12-07T04:43:56;3.90;99.90
66568;DHT22;53422;49.296;6.900;2022-12-07T04:46:23;3.90;99.90
66568;DHT22;53422;49.296;6.900;2022-12-07T04:48:50;3.90;99.90
66568;DHT22;53422;49.296;6.900;2022-12-07T04:51:21;3.90;99.90
66568;DHT22;53422;49.296;6.900;2022-12-07T04:53:47;3.90;99.90
66568;DHT22;53422;49.296;6.900;2022-12-07T04:56:14;3.90;99.90
66568;DHT22;53422;49.296;6.900;2022-12-07T04:58:41;3.90;99.90
66568;DHT22;53422;49.296;6.900;2022-12-07T05:01:07;3.90;99.90
66568;DHT22;53422;49.296;6.900;2022-12-07T05:03:32;3.90;99.90
66568;DHT22;53422;49.296;6.900;2022-12-07T05:05:58;3.90;99.90
66568;DHT22;53422;49.296;6.900;2022-12-07T05:08:24;3.90;99.90
66568;DHT22;53422;49.296;6.900;2022-12-07T05:10:49;3.90;99.90
66568;DHT22;53422;49.296;6.900;2022-12-07T05:13:15;3.90;99.90
66568;DHT22;53422;49.296;6.900;2022-12-07T05:15:41;3.90;99.90
66568;DHT22;53422;49.296;6.900;2022-12-07T05:18:09;3.90;99.90
66568;DHT22;53422;49.296;6.900;2022-12-07T05:20:35;3.90;99.90
66568;DHT22;53422;49.296;6.900;2022-12-07T05:23:01;3.90;99.90
66568;DHT22;53422;49.296;6.900;2022-12-07T05:25:26;3.90;99.90
66568;DHT22;53422;49.296;6.900;2022-12-07T05:27:52;3.90;99.90
66568;DHT22;53422;49.296;6.900;2022-12-07T05:30:18;3.90;99.90
66568;DHT22;53422;49.296;6.900;2022-12-07T05:32:43;3.90;99.90
66568;DHT22;53422;49.296;6.900;2022-12-07T05:35:09;3.90;99.90
66568;DHT22;53422;49.296;6.900;2022-12-07T05:37:35;3.90;99.90
66568;DHT22;53422;49.296;6.900;2022-12-07T05:40:00;3.90;99.90
66568;DHT22;53422;49.296;6.900;2022-12-07T05:42:26;3.90;99.90
66568;DHT22;53422;49.296;6.900;2022-12-07T05:44:52;3.90;99.90
66568;DHT22;53422;49.296;6.900;2022-12-07T05:47:17;3.90;99.90
66568;DHT22;53422;49.296;6.900;2022-12-07T05:49:43;3.90;99.90
66568;DHT22;53422;49.296;6.900;2022-12-07T05:52:08;3.90;99.90
66568;DHT22;53422;49.296;6.900;2022-12-07T05:54:34;3.90;99.90
66568;DHT22;53422;49.296;6.900;2022-12-07T05:57:00;3.90;99.90
66568;DHT22;53422;49.296;6.900;2022-12-07T05:59:25;3.90;99.90
66568;DHT22;53422;49.296;6.900;2022-12-07T06:01:57;3.90;99.90
66568;DHT22;53422;49.296;6.900;2022-12-07T06:04:24;3.90;99.90
66568;DHT22;53422;49.296;6.900;2022-12-07T06:06:51;3.90;99.90
66568;DHT22;53422;49.296;6.900;2022-12-07T06:09:17;3.90;99.90
66568;DHT22;53422;49.296;6.900;2022-12-07T06:11:46;4.00;99.90
66568;DHT22;53422;49.296;6.900;2022-12-07T06:14:30;3.90;99.90
66568;DHT22;53422;49.296;6.900;2022-12-07T06:16:56;3.90;99.90
66568;DHT22;53422;49.296;6.900;2022-12-07T06:19:22;3.90;99.90
66568;DHT22;53422;49.296;6.900;2022-12-07T06:21:47;3.90;99.90
66568;DHT22;53422;49.296;6.900;2022-12-07T06:24:14;4.00;99.90
66568;DHT22;53422;49.296;6.900;2022-12-07T06:26:41;4.00;99.90
66568;DHT22;53422;49.296;6.900;2022-12-07T06:29:07;3.90;99.90
66568;DHT22;53422;49.296;6.900;2022-12-07T06:31:33;4.00;99.90
66568;DHT22;53422;49.296;6.900;2022-12-07T06:34:04;4.00;99.90
66568;DHT22;53422;49.296;6.900;2022-12-07T06:36:30;4.00;99.90
66568;DHT22;53422;49.296;6.900;2022-12-07T06:38:55;4.00;99.90
66568;DHT22;53422;49.296;6.900;2022-12-07T06:41:21;4.00;99.90
66568;DHT22;53422;49.296;6.900;2022-12-07T06:43:47;4.00;99.90
66568;DHT22;53422;49.296;6.900;2022-12-07T06:46:14;4.00;99.90
66568;DHT22;53422;49.296;6.900;2022-12-07T06:48:40;4.00;99.90
66568;DHT22;53422;49.296;6.900;2022-12-07T06:51:06;4.00;99.90
66568;DHT22;53422;49.296;6.900;2022-12-07T06:53:31;4.00;99.90
66568;DHT22;53422;49.296;6.900;2022-12-07T06:55:57;4.00;99.90
66568;DHT22;53422;49.296;6.900;2022-12-07T06:58:23;4.00;99.90
66568;DHT22;53422;49.296;6.900;2022-12-07T07:00:49;4.00;99.90
66568;DHT22;53422;49.296;6.900;2022-12-07T07:03:15;4.00;99.90
66568;DHT22;53422;49.296;6.900;2022-12-07T07:05:42;4.00;99.90
66568;DHT22;53422;49.296;6.900;2022-12-07T07:08:08;4.00;99.90
66568;DHT22;53422;49.296;6.900;2022-12-07T07:10:33;4.00;99.90
66568;DHT22;53422;49.296;6.900;2022-12-07T07:12:59;4.00;99.90
66568;DHT22;53422;49.296;6.900;2022-12-07T07:15:25;4.00;99.90
66568;DHT22;53422;49.296;6.900;2022-12-07T07:17:54;4.00;99.90
66568;DHT22;53422;49.296;6.900;2022-12-07T07:20:20;4.00;99.90
66568;DHT22;53422;49.296;6.900;2022-12-07T07:22:45;4.00;99.90
66568;DHT22;53422;49.296;6.900;2022-12-07T07:25:11;4.00;99.90
66568;DHT22;53422;49.296;6.900;2022-12-07T07:27:37;4.00;99.90
66568;DHT22;53422;49.296;6.900;2022-12-07T07:30:03;4.00;99.90
66568;DHT22;53422;49.296;6.900;2022-12-07T07:32:31;4.00;99.90
66568;DHT22;53422;49.296;6.900;2022-12-07T07:34:56;4.00;99.90
66568;DHT22;53422;49.296;6.900;2022-12-07T07:37:22;4.00;99.90
66568;DHT22;53422;49.296;6.900;2022-12-07T07:39:48;4.00;99.90
66568;DHT22;53422;49.296;6.900;2022-12-07T07:42:14;4.00;99.90
66568;DHT22;53422;49.296;6.900;2022-12-07T07:44:40;4.00;99.90
66568;DHT22;53422;49.296;6.900;2022-12-07T07:47:06;4.00;99.90
66568;DHT22;53422;49.296;6.900;2022-12-07T07:49:32;4.10;99.90
66568;DHT22;53422;49.296;6.900;2022-12-07T07:51:58;4.10;99.90
66568;DHT22;53422;49.296;6.900;2022-12-07T07:54:23;4.00;99.90
66568;DHT22;53422;49.296;6.900;2022-12-07T07:56:49;4.00;99.90
66568;DHT22;53422;49.296;6.900;2022-12-07T07:59:16;4.00;99.90
66568;DHT22;53422;49.296;6.900;2022-12-07T08:01:41;4.00;99.90
66568;DHT22;53422;49.296;6.900;2022-12-07T08:04:07;4.10;99.90
66568;DHT22;53422;49.296;6.900;2022-12-07T08:06:33;4.00;99.90
66568;DHT22;53422;49.296;6.900;2022-12-07T08:08:59;4.00;99.90
66568;DHT22;53422;49.296;6.900;2022-12-07T08:11:24;4.10;99.90
66568;DHT22;53422;49.296;6.900;2022-12-07T08:13:50;4.10;99.90
66568;DHT22;53422;49.296;6.900;2022-12-07T08:16:16;4.00;99.90
66568;DHT22;53422;49.296;6.900;2022-12-07T08:18:43;4.10;99.90
66568;DHT22;53422;49.296;6.900;2022-12-07T08:21:11;4.10;99.90
66568;DHT22;53422;49.296;6.900;2022-12-07T08:23:37;4.10;99.90
66568;DHT22;53422;49.296;6.900;2022-12-07T08:26:05;4.10;99.90
66568;DHT22;53422;49.296;6.900;2022-12-07T08:28:31;4.10;99.90
66568;DHT22;53422;49.296;6.900;2022-12-07T08:31:02;4.10;99.90
66568;DHT22;53422;49.296;6.900;2022-12-07T08:33:28;4.10;99.90
66568;DHT22;53422;49.296;6.900;2022-12-07T08:35:53;4.10;99.90
66568;DHT22;53422;49.296;6.900;2022-12-07T08:38:19;4.10;99.90
66568;DHT22;53422;49.296;6.900;2022-12-07T08:40:45;4.10;99.90
66568;DHT22;53422;49.296;6.900;2022-12-07T08:43:10;4.10;99.90
66568;DHT22;53422;49.296;6.900;2022-12-07T08:45:36;4.20;99.90
66568;DHT22;53422;49.296;6.900;2022-12-07T08:48:10;4.20;99.90
66568;DHT22;53422;49.296;6.900;2022-12-07T08:50:38;4.20;99.90
66568;DHT22;53422;49.296;6.900;2022-12-07T08:53:05;4.20;99.90
66568;DHT22;53422;49.296;6.900;2022-12-07T08:55:31;4.20;99.90
66568;DHT22;53422;49.296;6.900;2022-12-07T08:57:59;4.20;99.90
66568;DHT22;53422;49.296;6.900;2022-12-07T09:00:25;4.20;99.90
66568;DHT22;53422;49.296;6.900;2022-12-07T09:02:51;4.20;99.90
66568;DHT22;53422;49.296;6.900;2022-12-07T09:05:18;4.20;99.90
66568;DHT22;53422;49.296;6.900;2022-12-07T09:07:47;4.20;99.90
66568;DHT22;53422;49.296;6.900;2022-12-07T09:10:15;4.30;99.90
66568;DHT22;53422;49.296;6.900;2022-12-07T09:12:40;4.30;99.90
66568;DHT22;53422;49.296;6.900;2022-12-07T09:15:06;4.30;99.90
66568;DHT22;53422;49.296;6.900;2022-12-07T09:17:33;4.30;99.90
66568;DHT22;53422;49.296;6.900;2022-12-07T09:20:00;4.30;99.90
66568;DHT22;53422;49.296;6.900;2022-12-07T09:22:30;4.30;99.90
66568;DHT22;53422;49.296;6.900;2022-12-07T09:24:57;4.30;99.90
66568;DHT22;53422;49.296;6.900;2022-12-07T09:27:22;4.30;99.90
66568;DHT22;53422;49.296;6.900;2022-12-07T09:29:48;4.40;99.90
66568;DHT22;53422;49.296;6.900;2022-12-07T09:32:14;4.40;99.90
66568;DHT22;53422;49.296;6.900;2022-12-07T09:34:39;4.40;99.90
66568;DHT22;53422;49.296;6.900;2022-12-07T09:37:05;4.40;99.90
66568;DHT22;53422;49.296;6.900;2022-12-07T09:39:32;4.40;99.90
66568;DHT22;53422;49.296;6.900;2022-12-07T09:41:58;4.40;99.90
66568;DHT22;53422;49.296;6.900;2022-12-07T09:44:26;4.40;99.90
66568;DHT22;53422;49.296;6.900;2022-12-07T09:46:52;4.50;99.90
66568;DHT22;53422;49.296;6.900;2022-12-07T09:49:21;4.50;99.90
66568;DHT22;53422;49.296;6.900;2022-12-07T09:51:47;4.50;99.90
66568;DHT22;53422;49.296;6.900;2022-12-07T09:54:15;4.50;99.90
66568;DHT22;53422;49.296;6.900;2022-12-07T09:56:42;4.50;99.90
66568;DHT22;53422;49.296;6.900;2022-12-07T09:59:16;4.60;99.90
66568;DHT22;53422;49.296;6.900;2022-12-07T10:01:44;4.60;99.90
66568;DHT22;53422;49.296;6.900;2022-12-07T10:04:17;4.60;99.90
66568;DHT22;53422;49.296;6.900;2022-12-07T10:06:43;4.60;99.90
66568;DHT22;53422;49.296;6.900;2022-12-07T10:09:17;4.60;99.90
66568;DHT22;53422;49.296;6.900;2022-12-07T10:12:08;4.60;99.90
66568;DHT22;53422;49.296;6.900;2022-12-07T10:15:03;4.60;99.90
66568;DHT22;53422;49.296;6.900;2022-12-07T10:17:32;4.70;99.90
66568;DHT22;53422;49.296;6.900;2022-12-07T10:20:14;4.70;99.90
66568;DHT22;53422;49.296;6.900;2022-12-07T10:25:22;4.70;99.90
66568;DHT22;53422;49.296;6.900;2022-12-07T10:28:02;4.70;99.90
66568;DHT22;53422;49.296;6.900;2022-12-07T10:30:30;4.70;99.90
66568;DHT22;53422;49.296;6.900;2022-12-07T10:32:57;4.70;99.90
66568;DHT22;53422;49.296;6.900;2022-12-07T10:35:27;4.80;99.90
66568;DHT22;53422;49.296;6.900;2022-12-07T10:37:54;4.80;99.90
66568;DHT22;53422;49.296;6.900;2022-12-07T10:40:34;4.80;99.90
66568;DHT22;53422;49.296;6.900;2022-12-07T10:48:37;4.80;99.90
66568;DHT22;53422;49.296;6.900;2022-12-07T10:51:27;4.90;99.90
66568;DHT22;53422;49.296;6.900;2022-12-07T10:54:18;4.90;99.90
66568;DHT22;53422;49.296;6.900;2022-12-07T10:57:06;4.90;99.90
66568;DHT22;53422;49.296;6.900;2022-12-07T11:05:17;5.00;99.90
66568;DHT22;53422;49.296;6.900;2022-12-07T11:10:52;5.00;99.90
66568;DHT22;53422;49.296;6.900;2022-12-07T11:24:13;5.10;99.90
66568;DHT22;53422;49.296;6.900;2022-12-07T11:26:42;5.10;99.90
66568;DHT22;53422;49.296;6.900;2022-12-07T11:29:33;5.10;99.90
66568;DHT22;53422;49.296;6.900;2022-12-07T11:32:20;5.10;99.90
66568;DHT22;53422;49.296;6.900;2022-12-07T11:35:05;5.10;99.90
66568;DHT22;53422;49.296;6.900;2022-12-07T11:37:35;5.10;99.90
66568;DHT22;53422;49.296;6.900;2022-12-07T11:42:55;5.20;99.90
66568;DHT22;53422;49.296;6.900;2022-12-07T11:45:33;5.20;99.90
66568;DHT22;53422;49.296;6.900;2022-12-07T11:56:03;5.20;99.90
66568;DHT22;53422;49.296;6.900;2022-12-07T12:06:38;5.20;99.90
66568;DHT22;53422;49.296;6.900;2022-12-07T12:19:40;5.30;99.90
66568;DHT22;53422;49.296;6.900;2022-12-07T12:22:41;5.30;99.90
66568;DHT22;53422;49.296;6.900;2022-12-07T12:25:28;5.30;99.90
66568;DHT22;53422;49.296;6.900;2022-12-07T12:27:57;5.30;99.90
66568;DHT22;53422;49.296;6.900;2022-12-07T12:30:31;5.30;99.90
66568;DHT22;53422;49.296;6.900;2022-12-07T12:33:21;5.30;99.90
66568;DHT22;53422;49.296;6.900;2022-12-07T12:39:14;5.30;99.90
66568;DHT22;53422;49.296;6.900;2022-12-07T12:51:49;5.30;99.90
66568;DHT22;53422;49.296;6.900;2022-12-07T12:57:15;5.40;99.90
66568;DHT22;53422;49.296;6.900;2022-12-07T13:02:26;5.30;99.90
66568;DHT22;53422;49.296;6.900;2022-12-07T13:12:58;5.30;99.90
66568;DHT22;53422;49.296;6.900;2022-12-07T13:18:04;5.30;99.90
66568;DHT22;53422;49.296;6.900;2022-12-07T13:24:11;5.30;99.90
66568;DHT22;53422;49.296;6.900;2022-12-07T13:26:14;5.30;99.90
66568;DHT22;53422;49.296;6.900;2022-12-07T13:28:51;5.30;99.90
66568;DHT22;53422;49.296;6.900;2022-12-07T13:31:39;5.30;99.90
66568;DHT22;53422;49.296;6.900;2022-12-07T13:34:35;5.30;99.90
66568;DHT22;53422;49.296;6.900;2022-12-07T13:39:33;5.30;99.90
66568;DHT22;53422;49.296;6.900;2022-12-07T13:42:08;5.30;99.90
66568;DHT22;53422;49.296;6.900;2022-12-07T13:44:40;5.30;99.90
66568;DHT22;53422;49.296;6.900;2022-12-07T13:48:00;5.30;99.90
66568;DHT22;53422;49.296;6.900;2022-12-07T13:52:49;5.20;99.90
66568;DHT22;53422;49.296;6.900;2022-12-07T13:55:16;5.20;99.90
66568;DHT22;53422;49.296;6.900;2022-12-07T13:57:50;5.30;99.90
66568;DHT22;53422;49.296;6.900;2022-12-07T14:00:22;5.20;99.90
66568;DHT22;53422;49.296;6.900;2022-12-07T14:05:37;5.20;99.90
66568;DHT22;53422;49.296;6.900;2022-12-07T14:10:52;5.20;99.90
66568;DHT22;53422;49.296;6.900;2022-12-07T14:15:57;5.20;99.90
66568;DHT22;53422;49.296;6.900;2022-12-07T14:18:37;5.20;99.90
66568;DHT22;53422;49.296;6.900;2022-12-07T14:21:27;5.20;99.90
66568;DHT22;53422;49.296;6.900;2022-12-07T14:26:34;5.20;99.90
66568;DHT22;53422;49.296;6.900;2022-12-07T14:31:52;5.20;99.90
66568;DHT22;53422;49.296;6.900;2022-12-07T14:34:20;5.20;99.90
66568;DHT22;53422;49.296;6.900;2022-12-07T14:36:46;5.20;99.90
66568;DHT22;53422;49.296;6.900;2022-12-07T14:39:12;5.10;99.90
66568;DHT22;53422;49.296;6.900;2022-12-07T14:41:37;5.10;99.90
66568;DHT22;53422;49.296;6.900;2022-12-07T14:44:27;5.10;99.90
66568;DHT22;53422;49.296;6.900;2022-12-07T14:46:54;5.10;99.90
66568;DHT22;53422;49.296;6.900;2022-12-07T14:49:19;5.10;99.90
66568;DHT22;53422;49.296;6.900;2022-12-07T14:51:46;5.10;99.90
66568;DHT22;53422;49.296;6.900;2022-12-07T14:54:18;5.10;99.90
66568;DHT22;53422;49.296;6.900;2022-12-07T14:56:44;5.10;99.90
66568;DHT22;53422;49.296;6.900;2022-12-07T14:59:11;5.10;99.90
66568;DHT22;53422;49.296;6.900;2022-12-07T15:01:37;5.10;99.90
66568;DHT22;53422;49.296;6.900;2022-12-07T15:04:03;5.10;99.90
66568;DHT22;53422;49.296;6.900;2022-12-07T15:06:29;5.10;99.90
66568;DHT22;53422;49.296;6.900;2022-12-07T15:08:54;5.10;99.90
66568;DHT22;53422;49.296;6.900;2022-12-07T15:11:20;5.10;99.90
66568;DHT22;53422;49.296;6.900;2022-12-07T15:13:46;5.10;99.90
66568;DHT22;53422;49.296;6.900;2022-12-07T15:16:30;5.10;99.90
66568;DHT22;53422;49.296;6.900;2022-12-07T15:18:56;5.10;99.90
66568;DHT22;53422;49.296;6.900;2022-12-07T15:21:22;5.10;99.90
66568;DHT22;53422;49.296;6.900;2022-12-07T15:23:47;5.10;99.90
66568;DHT22;53422;49.296;6.900;2022-12-07T15:26:13;5.10;99.90
66568;DHT22;53422;49.296;6.900;2022-12-07T15:28:40;5.10;99.90
66568;DHT22;53422;49.296;6.900;2022-12-07T15:31:16;5.10;99.90
66568;DHT22;53422;49.296;6.900;2022-12-07T15:33:43;5.10;99.90
66568;DHT22;53422;49.296;6.900;2022-12-07T15:36:21;5.10;99.90
66568;DHT22;53422;49.296;6.900;2022-12-07T15:38:48;5.00;99.90
66568;DHT22;53422;49.296;6.900;2022-12-07T15:41:13;5.10;99.90
66568;DHT22;53422;49.296;6.900;2022-12-07T15:43:39;5.00;99.90
66568;DHT22;53422;49.296;6.900;2022-12-07T15:46:23;5.00;99.90
66568;DHT22;53422;49.296;6.900;2022-12-07T15:48:49;5.00;99.90
66568;DHT22;53422;49.296;6.900;2022-12-07T15:51:15;5.00;99.90
66568;DHT22;53422;49.296;6.900;2022-12-07T15:53:40;5.00;99.90
66568;DHT22;53422;49.296;6.900;2022-12-07T15:56:07;5.00;99.90
66568;DHT22;53422;49.296;6.900;2022-12-07T15:58:33;4.90;99.90
66568;DHT22;53422;49.296;6.900;2022-12-07T16:00:59;4.90;99.90
66568;DHT22;53422;49.296;6.900;2022-12-07T16:03:24;4.90;99.90
66568;DHT22;53422;49.296;6.900;2022-12-07T16:05:51;4.90;99.90
66568;DHT22;53422;49.296;6.900;2022-12-07T16:08:18;4.90;99.90
66568;DHT22;53422;49.296;6.900;2022-12-07T16:10:44;4.90;99.90
66568;DHT22;53422;49.296;6.900;2022-12-07T16:13:10;4.90;99.90
66568;DHT22;53422;49.296;6.900;2022-12-07T16:15:40;4.90;99.90
66568;DHT22;53422;49.296;6.900;2022-12-07T16:18:06;4.80;99.90
66568;DHT22;53422;49.296;6.900;2022-12-07T16:20:31;4.80;99.90
66568;DHT22;53422;49.296;6.900;2022-12-07T16:22:57;4.90;99.90
66568;DHT22;53422;49.296;6.900;2022-12-07T16:25:23;4.80;99.90
66568;DHT22;53422;49.296;6.900;2022-12-07T16:27:49;4.80;99.90
66568;DHT22;53422;49.296;6.900;2022-12-07T16:30:15;4.80;99.90
66568;DHT22;53422;49.296;6.900;2022-12-07T16:32:41;4.80;99.90
66568;DHT22;53422;49.296;6.900;2022-12-07T16:35:07;4.80;99.90
66568;DHT22;53422;49.296;6.900;2022-12-07T16:37:33;4.70;99.90
66568;DHT22;53422;49.296;6.900;2022-12-07T16:39:59;4.70;99.90
66568;DHT22;53422;49.296;6.900;2022-12-07T16:42:24;4.70;99.90
66568;DHT22;53422;49.296;6.900;2022-12-07T16:44:50;4.60;99.90
66568;DHT22;53422;49.296;6.900;2022-12-07T16:47:16;4.60;99.90
66568;DHT22;53422;49.296;6.900;2022-12-07T16:49:42;4.60;99.90
66568;DHT22;53422;49.296;6.900;2022-12-07T16:52:08;4.60;99.90
66568;DHT22;53422;49.296;6.900;2022-12-07T16:54:34;4.60;99.90
66568;DHT22;53422;49.296;6.900;2022-12-07T16:56:59;4.50;99.90
66568;DHT22;53422;49.296;6.900;2022-12-07T16:59:25;4.50;99.90
66568;DHT22;53422;49.296;6.900;2022-12-07T17:01:51;4.50;99.90
66568;DHT22;53422;49.296;6.900;2022-12-07T17:04:20;4.50;99.90
66568;DHT22;53422;49.296;6.900;2022-12-07T17:06:45;4.50;99.90
66568;DHT22;53422;49.296;6.900;2022-12-07T17:09:11;4.50;99.90
66568;DHT22;53422;49.296;6.900;2022-12-07T17:11:37;4.50;99.90
66568;DHT22;53422;49.296;6.900;2022-12-07T17:14:03;4.50;99.90
66568;DHT22;53422;49.296;6.900;2022-12-07T17:16:48;4.40;99.90
66568;DHT22;53422;49.296;6.900;2022-12-07T17:19:15;4.40;99.90
66568;DHT22;53422;49.296;6.900;2022-12-07T17:21:42;4.50;99.90
66568;DHT22;53422;49.296;6.900;2022-12-07T17:24:09;4.40;99.90
66568;DHT22;53422;49.296;6.900;2022-12-07T17:26:36;4.40;99.90
66568;DHT22;53422;49.296;6.900;2022-12-07T17:29:04;4.40;99.90
66568;DHT22;53422;49.296;6.900;2022-12-07T17:31:30;4.40;99.90
66568;DHT22;53422;49.296;6.900;2022-12-07T17:33:57;4.40;99.90
66568;DHT22;53422;49.296;6.900;2022-12-07T17:36:25;4.40;99.90
66568;DHT22;53422;49.296;6.900;2022-12-07T17:38:51;4.40;99.90
66568;DHT22;53422;49.296;6.900;2022-12-07T17:41:25;4.40;99.90
66568;DHT22;53422;49.296;6.900;2022-12-07T17:44:12;4.30;99.90
66568;DHT22;53422;49.296;6.900;2022-12-07T17:46:38;4.30;99.90
66568;DHT22;53422;49.296;6.900;2022-12-07T17:49:04;4.30;99.90
66568;DHT22;53422;49.296;6.900;2022-12-07T17:51:30;4.30;99.90
66568;DHT22;53422;49.296;6.900;2022-12-07T17:54:15;4.30;99.90
66568;DHT22;53422;49.296;6.900;2022-12-07T17:56:40;4.30;99.90
66568;DHT22;53422;49.296;6.900;2022-12-07T17:59:07;4.30;99.90
66568;DHT22;53422;49.296;6.900;2022-12-07T18:01:32;4.30;99.90
66568;DHT22;53422;49.296;6.900;2022-12-07T18:03:58;4.30;99.90
66568;DHT22;53422;49.296;6.900;2022-12-07T18:06:24;4.30;99.90
66568;DHT22;53422;49.296;6.900;2022-12-07T18:08:49;4.20;99.90